ADDS METAR Data INFO
IDs: Format: Raw Decoded Include TAF

Data at: 0838 UTC 27 Jun 2017

KRBO 270815Z AUTO 31003KT 10SM SCT033 BKN043 OVC060 26/26 A2996 RMK AO2 T02560256
KRBO 270755Z AUTO 00000KT 10SM SCT037 BKN048 OVC060 26/26 A2997 RMK AO2 T02590259
KRBO 270735Z AUTO 00000KT 10SM SCT039 BKN048 BKN050 26/26 A2997 RMK AO2 T02550255
KRBO 270715Z AUTO 00000KT 10SM SCT046 26/25 A2997 RMK AO2 T02590247
KRBO 270655Z AUTO 00000KT 10SM CLR 26/25 A2997 RMK AO2 T02580247
KRBO 270635Z AUTO 10003KT 10SM SCT120 26/25 A2998 RMK AO2 T02580246
KRBO 270615Z AUTO 00000KT 10SM SCT120 26/25 A2999 RMK AO2 T02570246
KRBO 270555Z AUTO 10003KT 10SM CLR 26/25 A2998 RMK AO2 T02570245 10290 20256 403250242
KRBO 270535Z AUTO 00000KT 10SM CLR 26/25 A2998 RMK AO2 T02560245
KRBO 270515Z AUTO 10004KT 10SM CLR 26/24 A2997 RMK AO2 T02580240
KRBO 270455Z AUTO 13004KT 10SM CLR 26/24 A2997 RMK AO2 T02560244
KRBO 270435Z AUTO 12003KT 10SM CLR 26/24 A2997 RMK AO2 LTG DSNT SW T02600240
KRBO 270415Z AUTO 11005KT 10SM CLR 26/24 A2996 RMK AO2 T02600238
KRBO 270355Z AUTO 13004KT 10SM CLR 26/24 A2996 RMK AO2 T02600237
KRBO 270335Z AUTO 13003KT 10SM CLR 26/24 A2997 RMK AO2 T02610238
KRBO 270315Z AUTO 13005KT 10SM CLR 26/24 A2996 RMK AO2 T02620236
KRBO 270255Z AUTO 12003KT 10SM CLR 27/24 A2997 RMK AO2 T02660235
KRBO 270235Z AUTO 11005KT 10SM CLR 27/23 A2997 RMK AO2 T02700233
KRBO 270215Z AUTO 10005KT 10SM CLR 27/23 A2997 RMK AO2 T02720233
KRBO 270155Z AUTO 11004KT 10SM SCT026 SCT032 28/23 A2997 RMK AO2 T02770230
KRBO 270135Z AUTO 10005KT 10SM SCT026 SCT031 BKN095 28/23 A2997 RMK AO2 T02820230
KRBO 270115Z AUTO 10005KT 10SM SCT028 BKN095 29/23 A2997 RMK AO2 T02850231
KRBO 270055Z AUTO 10006KT 10SM OVC085 29/23 A2997 RMK AO2 T02870233
KRBO 270035Z AUTO 09007KT 10SM OVC085 29/23 A2997 RMK AO2 T02900230
KRBO 270015Z AUTO 10007KT 10SM OVC085 29/23 A2996 RMK AO2 LTG DSNT SW T02900226
KRBO 262355Z AUTO 12007KT 10SM BKN085 29/23 A2996 RMK AO2 T02900229 10325 20290
KRBO 262335Z AUTO 11009KT 10SM SCT085 SCT120 29/23 A2996 RMK AO2 LTG DSNT SW T02920228
KRBO 262315Z AUTO 11009G14KT 10SM SCT033 BKN085 BKN120 30/23 A2996 RMK AO2 LTG DSNT W T02950225
KRBO 262255Z AUTO 11010KT 10SM SCT033 BKN085 30/23 A2996 RMK AO2 T02960228
KRBO 262235Z AUTO 10010KT 10SM SCT080 30/22 A2996 RMK AO2 LTG DSNT SW AND W T03000223
KRBO 262215Z AUTO 11012G18KT 10SM SCT080 31/23 A2996 RMK AO2 T03100227
KRBO 262155Z AUTO 11011G17KT 10SM SCT110 31/23 A2996 RMK AO2 LTG DSNT S AND W T03100229
KRBO 262135Z AUTO 10011G18KT 10SM SCT034 SCT042 SCT085 32/24 A2997 RMK AO2 LTG DSNT SW T03170236
KRBO 262115Z AUTO 10012G17KT 10SM SCT034 BKN040 BKN060 31/23 A2997 RMK AO2 T03130231
KRBO 262055Z AUTO 10010G17KT 10SM SCT036 BKN045 BKN055 32/23 A2998 RMK AO2 T03150234
KRBO 262035Z AUTO 11010KT 10SM SCT036 BKN043 32/23 A2997 RMK AO2 LTG DSNT NW T03180232
KRBO 262015Z AUTO 10013G17KT 10SM SCT038 SCT043 SCT085 32/23 A2998 RMK AO2 LTG DSNT NW T03210230
KRBO 261955Z AUTO 08010G15KT 10SM SCT037 SCT046 SCT060 32/23 A2998 RMK AO2 T03210233
KRBO 261935Z AUTO 10008KT 10SM SCT039 SCT050 BKN055 32/23 A2999 RMK AO2 T03180228
KRBO 261915Z AUTO 12010KT 10SM SCT065 32/23 A2999 RMK AO2 LTG DSNT N T03210225
KRBO 261855Z AUTO 13009KT 10SM SCT039 SCT060 SCT070 32/23 A3000 RMK AO2 T03210226
KRBO 261835Z AUTO 10008KT 10SM SCT040 SCT060 BKN090 32/23 A3002 RMK AO2 T03240226
KRBO 261815Z AUTO 11005KT 10SM SCT037 BKN060 OVC090 31/23 A3003 RMK AO2 T03130230
KRBO 261755Z AUTO 03004KT 10SM SCT033 SCT050 OVC100 30/23 A3004 RMK AO2 T03020233 10315 20245
KRBO 261735Z AUTO 09007KT 10SM SCT090 BKN110 32/23 A3004 RMK AO2 T03150228
KRBO 261715Z AUTO 11004KT 10SM SCT060 BKN090 30/24 A3005 RMK AO2 T03010236
KRBO 261655Z AUTO 03003KT 10SM SCT048 BKN060 OVC080 30/24 A3006 RMK AO2 T02960239
KRBO 261635Z AUTO 07006KT 10SM SCT026 SCT031 BKN060 30/24 A3006 RMK AO2 T03000235
KRBO 261615Z AUTO 11004KT 10SM SCT026 SCT033 BKN039 30/24 A3006 RMK AO2 T03000237
KRBO 261555Z AUTO 08004KT 10SM SCT023 SCT027 BKN047 30/23 A3006 RMK AO2 T02950232
KRBO 261535Z AUTO 14003KT 10SM SCT023 BKN032 BKN041 29/24 A3006 RMK AO2 T02930239
KRBO 261515Z AUTO 08004KT 10SM SCT017 SCT023 SCT034 29/24 A3007 RMK AO2 T02910237
KRBO 261455Z AUTO 07006KT 10SM SCT013 29/24 A3007 RMK AO2 T02890244
KRBO 261435Z AUTO 09004KT 10SM SCT011 29/25 A3007 RMK AO2 T02850248
KRBO 261415Z AUTO 08005KT 10SM SCT020 SCT027 27/25 A3007 RMK AO2 T02740248
KRBO 261355Z AUTO 04003KT 10SM SCT022 BKN029 27/25 A3008 RMK AO2 T02670245
KRBO 261335Z AUTO 02004KT 10SM SCT022 SCT031 26/25 A3007 RMK AO2 T02630245
KRBO 261315Z AUTO 02003KT 10SM CLR 27/24 A3006 RMK AO2 T02650243
KRBO 261255Z AUTO 03003KT 10SM CLR 26/25 A3006 RMK AO2 T02610246
KRBO 261235Z AUTO 03004KT 10SM CLR 26/26 A3005 RMK AO2 T02550255
KRBO 261215Z AUTO 02004KT 10SM CLR 25/ A3006 RMK AO2 T0246
KRBO 261155Z AUTO 02004KT 10SM CLR 24/ A3005 RMK AO2 T0244 10258 20242
KRBO 261135Z AUTO 36004KT 10SM SCT021 SCT030 SCT045 24/ A3005 RMK AO2 T0243
KRBO 261115Z AUTO 36003KT 10SM BKN021 BKN029 25/ A3005 RMK AO2 T0245
KRBO 261055Z AUTO 00000KT 10SM SCT019 25/25 A3005 RMK AO2 T02470247
KRBO 261035Z AUTO 03003KT 10SM CLR 25/25 A3004 RMK AO2 T02480248
KRBO 261015Z AUTO 00000KT 10SM CLR 25/25 A3003 RMK AO2 T02500250
KRBO 260955Z AUTO 00000KT 10SM CLR 25/25 A3004 RMK AO2 T02520252
KRBO 260935Z AUTO 00000KT 10SM CLR 25/25 A3004 RMK AO2 T02520252
KRBO 260915Z AUTO 04003KT 10SM CLR 26/25 A3005 RMK AO2 T02560252
KRBO 260855Z AUTO 07003KT 10SM CLR 26/26 A3005 RMK AO2 T02570257
KRBO 260835Z AUTO 00000KT 10SM CLR 26/26 A3005 RMK AO2 T02570257
KRBO 260815Z AUTO 09003KT 10SM CLR 26/26 A3005 RMK AO2 T02560256
KRBO 260755Z AUTO 00000KT 10SM CLR 26/26 A3004 RMK AO2 T02560256
KRBO 260735Z AUTO 08003KT 10SM SCT020 SCT032 26/26 A3004 RMK AO2 T02560256
KRBO 260715Z AUTO 00000KT 10SM SCT020 BKN029 BKN035 26/26 A3005 RMK AO2 T02570257
KRBO 260655Z AUTO 00000KT 10SM SCT018 SCT029 SCT035 26/26 A3005 RMK AO2 T02550255
KRBO 260635Z AUTO 00000KT 10SM CLR 26/26 A3005 RMK AO2 T02550255
KRBO 260615Z AUTO 12003KT 10SM CLR 26/26 A3006 RMK AO2 T02560256
KRBO 260555Z AUTO 12003KT 10SM CLR 26/26 A3006 RMK AO2 T02580258 10311 20258 403260240
KRBO 260535Z AUTO 11003KT 10SM CLR 26/26 A3007 RMK AO2 T02600260
KRBO 260515Z AUTO 12004KT 10SM CLR 26/24 A3006 RMK AO2 T02610243
KRBO 260455Z AUTO 13004KT 10SM SCT018 SCT027 SCT033 26/24 A3007 RMK AO2 T02620241
KRBO 260435Z AUTO 13003KT 10SM CLR 26/24 A3007 RMK AO2 T02600240
KRBO 260415Z AUTO 10003KT 10SM CLR 26/24 A3007 RMK AO2 T02620240
KRBO 260355Z AUTO 10003KT 10SM SCT023 SCT028 26/24 A3007 RMK AO2 T02620239
KRBO 260335Z AUTO 10003KT 10SM CLR 26/24 A3007 RMK AO2 T02630239
KRBO 260315Z AUTO 11004KT 10SM CLR 27/24 A3006 RMK AO2 T02650239
KRBO 260255Z AUTO 13005KT 10SM CLR 27/24 A3005 RMK AO2 T02660240
KRBO 260235Z AUTO 13005KT 10SM CLR 27/24 A3005 RMK AO2 T02670240
KRBO 260215Z AUTO 12005KT 10SM CLR 27/24 A3005 RMK AO2 T02670238
KRBO 260155Z AUTO 12003KT 10SM CLR 27/24 A3005 RMK AO2 T02720235
KRBO 260135Z AUTO 12003KT 10SM CLR 28/23 A3005 RMK AO2 T02790232
KRBO 260115Z AUTO 10005KT 10SM CLR 29/23 A3005 RMK AO2 T02850232
KRBO 260055Z AUTO 11008KT 10SM CLR 29/23 A3005 RMK AO2 LTG DSNT W T02920228
KRBO 260035Z AUTO 10009G14KT 10SM CLR 30/22 A3004 RMK AO2 LTG DSNT W T02970223
KRBO 260015Z AUTO 10011KT 10SM CLR 30/23 A3004 RMK AO2 T03020225
KRBO 252355Z AUTO 08011KT 10SM CLR 31/22 A3004 RMK AO2 LTG DSNT W T03130216 10326 20282
KRBO 252335Z AUTO 09007KT 10SM CLR 32/22 A3004 RMK AO2 LTG DSNT SW T03170221
KRBO 252315Z AUTO 11008KT 10SM CLR 32/22 A3004 RMK AO2 T03170223
KRBO 252255Z AUTO 11008KT 10SM CLR 32/23 A3004 RMK AO2 T03170225
KRBO 252235Z AUTO 11009KT 10SM SCT039 32/23 A3003 RMK AO2 T03190231
KRBO 252215Z AUTO 08008KT 10SM CLR 33/22 A3004 RMK AO2 LTG DSNT N T03250220
KRBO 252155Z AUTO 09009KT 10SM SCT040 33/21 A3005 RMK AO2 LTG DSNT S T03250213
KRBO 252135Z AUTO 10007KT 10SM CLR 33/22 A3005 RMK AO2 LTG DSNT S T03260221
KRBO 252115Z AUTO 12007KT 10SM CLR 32/22 A3005 RMK AO2 LTG DSNT S T03210222
KRBO 252055Z AUTO 11007G14KT 10SM CLR 32/22 A3005 RMK AO2 T03210224


Page loaded:  08:38 UTC  |   01:38 AM Pacific  |   02:38 AM Mountain  |   03:38 AM Central  |   04:38 AM Eastern

 

ADVISORIES

FORECASTS

FORECASTS

OBSERVATIONS

USER TOOLS

ABOUT US